Terminal Aerodrome Forecast
Issued by NWS Sterling, VA

Current Version | Previous Version | Graphics & Text | Print | Product List | Glossary On
Versions: 1 2 3 4 5 6 7 8 9 10 11 12 13 14 15 16 17 18 19 20 21 22 23 24
794
FTUS41 KLWX 032059 AAA
TAFDCA
TAF AMD
KDCA 032059Z 0321/0418 31013G21KT P6SM SCT045 BKN250
     FM032300 31010KT P6SM FEW045 SCT250
     FM040800 31005KT P6SM SCT150 BKN250=

USA.gov is the U.S. government's official web portal to all federal, state and local government web resources and services.